Time;durP1;ratioP1;P1;durP2;ratioP2;P2;SDS_P1;SDS_P2;PMS_P1;PMS_P2;Temp;Humidity;BMP_temperature;BMP_pressure;BME280_temperature;BME280_humidity;BME280_pressure;Samples;Min_cycle;Max_cycle;Signal;HPM_P1;HPM_P2
2023/09/09 00:01:26;;;;;;;3.70;2.42;;;23.60;72.50;;;;;;5110806;28;20570;-67
2023/09/09 00:03:52;;;;;;;4.45;2.17;;;23.50;72.40;;;;;;5110304;28;20019;-66
2023/09/09 00:06:18;;;;;;;2.25;2.00;;;23.50;72.80;;;;;;5110846;28;20035;-66
2023/09/09 00:08:43;;;;;;;3.00;2.70;;;23.50;72.80;;;;;;5110284;28;20024;-67
2023/09/09 00:11:09;;;;;;;2.65;2.45;;;23.50;72.70;;;;;;5108603;28;20023;-66
2023/09/09 00:13:36;;;;;;;2.22;2.03;;;23.40;72.60;;;;;;5109413;28;20562;-66
2023/09/09 00:16:01;;;;;;;2.50;1.95;;;23.40;72.60;;;;;;5110445;28;20028;-66
2023/09/09 00:18:27;;;;;;;3.03;2.03;;;23.40;72.60;;;;;;5109513;28;20056;-66
2023/09/09 00:20:53;;;;;;;4.28;2.10;;;23.40;72.70;;;;;;5110518;28;20092;-66
2023/09/09 00:23:19;;;;;;;3.30;2.47;;;23.40;72.70;;;;;;5106379;28;20012;-67
2023/09/09 00:25:44;;;;;;;2.70;2.33;;;23.30;72.70;;;;;;5108720;28;20034;-67
2023/09/09 00:28:11;;;;;;;2.53;2.28;;;23.30;72.60;;;;;;5108538;28;20155;-66
2023/09/09 00:30:37;;;;;;;2.83;2.60;;;23.30;72.70;;;;;;5092117;28;20032;-66
2023/09/09 00:33:04;;;;;;;2.45;2.17;;;23.20;72.80;;;;;;5107671;28;20085;-66
2023/09/09 00:35:32;;;;;;;2.80;2.50;;;23.20;72.80;;;;;;5110036;28;20066;-66
2023/09/09 00:37:58;;;;;;;3.85;2.45;;;23.20;72.80;;;;;;5109034;27;20031;-66
2023/09/09 00:40:24;;;;;;;2.83;2.50;;;23.20;72.80;;;;;;5110769;28;20019;-66
2023/09/09 00:42:50;;;;;;;3.28;2.30;;;23.20;72.90;;;;;;5108262;28;20394;-66
2023/09/09 00:45:16;;;;;;;2.50;2.08;;;23.20;72.80;;;;;;5107375;28;20032;-67
2023/09/09 00:47:42;;;;;;;4.60;2.80;;;23.10;72.80;;;;;;5107296;27;20027;-67
2023/09/09 00:50:13;;;;;;;2.67;2.33;;;23.10;72.90;;;;;;5109989;28;20098;-67
2023/09/09 00:52:40;;;;;;;6.75;2.72;;;23.10;72.80;;;;;;5109344;28;20031;-67
2023/09/09 00:55:11;;;;;;;2.28;1.85;;;23.10;72.90;;;;;;5108664;28;20030;-67
2023/09/09 00:57:37;;;;;;;3.33;2.72;;;23.10;72.90;;;;;;5103596;28;20043;-67
2023/09/09 01:00:09;;;;;;;2.63;2.35;;;23.10;73.00;;;;;;5108559;28;20032;-67
2023/09/09 01:02:41;;;;;;;2.10;1.80;;;23.10;73.00;;;;;;5099664;28;20031;-67
2023/09/09 01:05:09;;;;;;;3.63;2.35;;;23.00;73.00;;;;;;5109632;28;20027;-66
2023/09/09 01:07:48;;;;;;;2.47;2.25;;;23.00;73.10;;;;;;5109440;28;20094;-65
2023/09/09 01:10:16;;;;;;;3.78;2.45;;;23.00;73.00;;;;;;5107683;28;20038;-66
2023/09/09 01:12:42;;;;;;;3.40;2.03;;;22.90;73.10;;;;;;5108557;28;20490;-66
2023/09/09 01:15:08;;;;;;;3.00;1.83;;;22.90;73.20;;;;;;5106024;28;20432;-66
2023/09/09 01:17:35;;;;;;;3.10;2.50;;;22.90;73.20;;;;;;5108888;28;20055;-66
2023/09/09 01:20:09;;;;;;;2.92;2.30;;;22.90;73.50;;;;;;5108727;28;20347;-66
2023/09/09 01:22:36;;;;;;;2.30;2.10;;;22.90;73.60;;;;;;5104504;28;20281;-66
2023/09/09 01:25:07;;;;;;;4.70;2.03;;;22.90;73.60;;;;;;5109386;28;20027;-67
2023/09/09 01:27:33;;;;;;;2.78;2.08;;;22.90;73.60;;;;;;5108632;28;20367;-67
2023/09/09 01:29:59;;;;;;;3.42;3.05;;;22.80;73.50;;;;;;5109512;28;20028;-66
2023/09/09 01:32:25;;;;;;;2.55;2.20;;;22.80;73.50;;;;;;5107372;28;20024;-66
2023/09/09 01:34:51;;;;;;;2.65;2.40;;;22.80;73.70;;;;;;5108202;28;20027;-66
2023/09/09 01:37:17;;;;;;;2.30;2.10;;;22.80;73.70;;;;;;5107965;28;20039;-66
2023/09/09 01:39:43;;;;;;;3.67;2.55;;;22.80;73.60;;;;;;5108963;28;20394;-66
2023/09/09 01:42:08;;;;;;;2.58;1.80;;;22.80;73.60;;;;;;5106801;28;20020;-66
2023/09/09 01:44:34;;;;;;;2.72;2.10;;;22.70;73.60;;;;;;5107136;28;20028;-66
2023/09/09 01:47:00;;;;;;;3.15;2.35;;;22.70;73.60;;;;;;5107747;28;20055;-65
2023/09/09 01:49:25;;;;;;;3.88;2.40;;;22.70;73.70;;;;;;5109387;28;20505;-66
2023/09/09 01:51:51;;;;;;;3.97;2.30;;;22.70;73.80;;;;;;5108580;28;20027;-66
2023/09/09 01:54:17;;;;;;;3.80;2.45;;;22.70;73.80;;;;;;5104880;28;20027;-66
2023/09/09 01:56:42;;;;;;;3.60;2.85;;;22.70;73.80;;;;;;5104150;28;20115;-66
2023/09/09 01:59:08;;;;;;;2.38;2.08;;;22.70;73.80;;;;;;5106490;28;20040;-66
2023/09/09 02:01:34;;;;;;;2.35;2.15;;;22.60;73.80;;;;;;5108214;28;20491;-66
2023/09/09 02:03:59;;;;;;;4.22;2.85;;;22.60;74.00;;;;;;5108662;28;20031;-66
2023/09/09 02:06:27;;;;;;;2.60;2.30;;;22.60;74.00;;;;;;5108462;28;20452;-66
2023/09/09 02:08:53;;;;;;;5.65;3.05;;;22.60;74.00;;;;;;5109008;28;20039;-66
2023/09/09 02:11:19;;;;;;;2.53;2.05;;;22.60;74.10;;;;;;5105159;28;20028;-66
2023/09/09 02:13:44;;;;;;;2.88;2.30;;;22.60;74.20;;;;;;5107102;28;20102;-66
2023/09/09 02:16:10;;;;;;;3.53;2.60;;;22.60;74.20;;;;;;5109321;28;20036;-66
2023/09/09 02:18:37;;;;;;;3.00;2.35;;;22.50;74.20;;;;;;5107620;28;20047;-66
2023/09/09 02:21:03;;;;;;;3.47;2.55;;;22.50;74.40;;;;;;5107624;28;20028;-66
2023/09/09 02:23:29;;;;;;;3.58;2.60;;;22.50;75.00;;;;;;5107987;28;20031;-66
2023/09/09 02:25:55;;;;;;;2.90;2.58;;;22.40;74.50;;;;;;5107763;28;20015;-66
2023/09/09 02:28:21;;;;;;;2.55;2.22;;;22.40;74.60;;;;;;5104039;28;20540;-67
2023/09/09 02:30:47;;;;;;;3.08;2.05;;;22.40;74.60;;;;;;5107454;28;20024;-66
2023/09/09 02:33:13;;;;;;;3.40;2.53;;;22.40;74.50;;;;;;5104400;28;20023;-66
2023/09/09 02:35:44;;;;;;;3.45;2.40;;;22.40;74.60;;;;;;5107895;28;20111;-66
2023/09/09 02:38:10;;;;;;;3.45;2.25;;;22.40;74.50;;;;;;5106316;28;20084;-66
2023/09/09 02:40:36;;;;;;;2.55;2.17;;;22.40;74.60;;;;;;5107033;28;20028;-66
2023/09/09 02:43:02;;;;;;;3.40;2.75;;;22.40;74.50;;;;;;5102918;28;20023;-66
2023/09/09 02:45:28;;;;;;;3.20;2.58;;;22.40;74.50;;;;;;5110744;28;20494;-66
2023/09/09 02:47:54;;;;;;;2.97;1.98;;;22.30;74.40;;;;;;5111786;28;20486;-66
2023/09/09 02:50:19;;;;;;;4.38;1.80;;;22.30;74.40;;;;;;5112575;28;20515;-67
2023/09/09 02:52:48;;;;;;;2.58;1.90;;;22.30;74.40;;;;;;5108227;28;20024;-66
2023/09/09 02:55:13;;;;;;;3.80;2.83;;;22.30;74.40;;;;;;5111838;28;20107;-66
2023/09/09 02:57:39;;;;;;;3.08;2.33;;;22.30;74.50;;;;;;5106942;28;20166;-66
2023/09/09 03:00:08;;;;;;;3.33;2.00;;;22.20;74.50;;;;;;5076918;28;20031;-66
2023/09/09 03:02:34;;;;;;;3.28;2.58;;;22.20;74.60;;;;;;5109868;28;20063;-66
2023/09/09 03:04:59;;;;;;;3.97;2.63;;;22.20;74.60;;;;;;5111703;28;20027;-66
2023/09/09 03:07:25;;;;;;;3.67;2.70;;;22.20;74.70;;;;;;5111077;28;20037;-66
2023/09/09 03:09:51;;;;;;;3.33;2.22;;;22.20;74.80;;;;;;5110847;28;20428;-66
2023/09/09 03:12:20;;;;;;;3.08;2.50;;;22.10;74.80;;;;;;5111293;28;20103;-67
2023/09/09 03:14:50;;;;;;;4.40;2.53;;;22.10;74.80;;;;;;5111520;28;20115;-67
2023/09/09 03:17:17;;;;;;;6.25;2.78;;;22.10;74.70;;;;;;5110517;27;20028;-67
2023/09/09 03:19:43;;;;;;;2.60;1.95;;;22.10;74.80;;;;;;5108684;28;20089;-67
2023/09/09 03:22:08;;;;;;;10.93;2.20;;;22.10;74.80;;;;;;5109971;28;20513;-67
2023/09/09 03:24:34;;;;;;;3.47;2.22;;;22.00;74.80;;;;;;5110686;28;20054;-67
2023/09/09 03:26:59;;;;;;;4.22;2.33;;;22.00;74.80;;;;;;5111681;28;20032;-67
2023/09/09 03:29:25;;;;;;;2.63;2.00;;;22.00;74.80;;;;;;5110996;28;20015;-67
2023/09/09 03:31:51;;;;;;;2.50;2.20;;;22.00;74.80;;;;;;5109358;28;20023;-67
2023/09/09 03:34:17;;;;;;;2.72;2.05;;;22.00;74.90;;;;;;5111002;28;20050;-67
2023/09/09 03:36:42;;;;;;;2.90;2.42;;;22.00;74.90;;;;;;5109537;28;20028;-67
2023/09/09 03:39:09;;;;;;;3.08;2.40;;;22.00;74.90;;;;;;5111186;28;20039;-67
2023/09/09 03:41:34;;;;;;;3.40;2.20;;;21.90;75.60;;;;;;5109550;28;20042;-67
2023/09/09 03:44:00;;;;;;;3.00;2.13;;;21.90;75.00;;;;;;5110209;28;20036;-66
2023/09/09 03:46:26;;;;;;;4.63;2.60;;;21.90;75.00;;;;;;5111115;28;20039;-67
2023/09/09 03:48:52;;;;;;;3.17;2.42;;;21.90;75.00;;;;;;5107640;28;20012;-67
2023/09/09 03:51:19;;;;;;;9.45;2.40;;;21.90;75.00;;;;;;5103493;28;20081;-67
2023/09/09 03:53:45;;;;;;;3.90;2.30;;;21.90;75.00;;;;;;5107641;28;20462;-67
2023/09/09 03:56:10;;;;;;;2.30;2.10;;;21.80;75.00;;;;;;5110377;28;20095;-67
2023/09/09 03:58:36;;;;;;;4.20;2.95;;;21.80;75.00;;;;;;5109148;28;20035;-67
2023/09/09 04:01:06;;;;;;;2.72;2.30;;;21.80;75.00;;;;;;5109728;28;20047;-67
2023/09/09 04:03:35;;;;;;;4.38;2.70;;;21.80;75.00;;;;;;5108840;28;20023;-67
2023/09/09 04:06:04;;;;;;;4.20;2.50;;;21.80;75.00;;;;;;5109696;28;20031;-67
2023/09/09 04:08:30;;;;;;;2.75;2.38;;;21.70;75.00;;;;;;5103185;28;20084;-67
2023/09/09 04:10:57;;;;;;;2.65;2.17;;;21.70;75.10;;;;;;5106973;28;20058;-67
2023/09/09 04:13:23;;;;;;;3.25;2.80;;;21.70;75.20;;;;;;5108251;28;20657;-67
2023/09/09 04:15:49;;;;;;;3.10;2.28;;;21.70;75.20;;;;;;5109348;27;20028;-67
2023/09/09 04:18:15;;;;;;;3.50;2.50;;;21.60;75.10;;;;;;5108997;28;20401;-67
2023/09/09 04:20:41;;;;;;;5.00;2.55;;;21.60;75.10;;;;;;5110502;27;20527;-67
2023/09/09 04:23:06;;;;;;;3.63;2.78;;;21.60;75.20;;;;;;5105598;28;20035;-67
2023/09/09 04:25:32;;;;;;;4.85;3.53;;;21.60;75.20;;;;;;5104210;28;20039;-67
2023/09/09 04:27:58;;;;;;;3.13;2.40;;;21.60;75.20;;;;;;5106933;28;20120;-67
2023/09/09 04:30:23;;;;;;;4.60;2.72;;;21.60;75.30;;;;;;5090375;28;20024;-66
2023/09/09 04:32:49;;;;;;;5.05;2.88;;;21.50;75.20;;;;;;5107797;28;20456;-66
2023/09/09 04:35:14;;;;;;;5.07;3.20;;;21.50;75.20;;;;;;5107893;28;20435;-66
2023/09/09 04:37:40;;;;;;;4.20;2.67;;;21.50;75.40;;;;;;5106889;28;20466;-66
2023/09/09 04:40:06;;;;;;;4.22;2.90;;;21.50;75.40;;;;;;5106338;28;20066;-66
2023/09/09 04:42:33;;;;;;;4.07;2.58;;;21.50;75.50;;;;;;5104204;28;20448;-67
2023/09/09 04:44:59;;;;;;;4.85;3.25;;;21.40;75.50;;;;;;5106083;28;20114;-66
2023/09/09 04:47:25;;;;;;;5.30;4.07;;;21.40;75.50;;;;;;5101516;28;20118;-65
2023/09/09 04:49:50;;;;;;;4.38;3.05;;;21.40;75.70;;;;;;5107791;28;20126;-66
2023/09/09 04:52:16;;;;;;;5.72;3.78;;;21.40;75.80;;;;;;5104299;28;20545;-66
2023/09/09 04:54:43;;;;;;;4.18;2.75;;;21.40;75.80;;;;;;5107247;28;20023;-66
2023/09/09 04:57:09;;;;;;;7.03;4.10;;;21.40;75.70;;;;;;5105028;28;20032;-66
2023/09/09 04:59:34;;;;;;;4.72;3.00;;;21.40;75.70;;;;;;5106995;28;20438;-66
2023/09/09 05:02:00;;;;;;;6.40;3.30;;;21.30;75.60;;;;;;5104451;28;20066;-66
2023/09/09 05:04:26;;;;;;;4.18;2.78;;;21.30;75.50;;;;;;5104327;28;20020;-66
2023/09/09 05:06:53;;;;;;;7.05;3.85;;;21.30;75.60;;;;;;5103226;27;20047;-67
2023/09/09 05:09:20;;;;;;;5.03;2.65;;;21.30;75.60;;;;;;5106478;28;20024;-66
2023/09/09 05:11:45;;;;;;;5.15;3.30;;;21.20;75.60;;;;;;5106699;27;20097;-68
2023/09/09 05:14:11;;;;;;;6.22;3.83;;;21.20;75.60;;;;;;5103942;28;20024;-66
2023/09/09 05:16:37;;;;;;;5.30;3.88;;;21.20;75.60;;;;;;5105730;28;20032;-67
2023/09/09 05:19:03;;;;;;;5.28;3.58;;;21.20;75.60;;;;;;5104224;28;20052;-67
2023/09/09 05:21:29;;;;;;;6.45;3.20;;;21.20;75.70;;;;;;5103875;28;20074;-67
2023/09/09 05:23:54;;;;;;;5.13;3.47;;;21.20;75.70;;;;;;5103287;28;20466;-67
2023/09/09 05:26:20;;;;;;;4.38;3.13;;;21.20;75.60;;;;;;5100645;27;20056;-67
2023/09/09 05:28:46;;;;;;;4.35;3.08;;;21.20;75.60;;;;;;5104146;28;20055;-66
2023/09/09 05:31:16;;;;;;;4.65;2.72;;;21.20;75.70;;;;;;5088047;28;20061;-67
2023/09/09 05:33:42;;;;;;;5.38;4.32;;;21.20;75.80;;;;;;5104467;28;20023;-67
2023/09/09 05:36:07;;;;;;;3.90;2.50;;;21.20;75.90;;;;;;5104066;28;20040;-67
2023/09/09 05:38:35;;;;;;;5.22;3.45;;;21.20;75.90;;;;;;5101654;28;20035;-66
2023/09/09 05:41:00;;;;;;;6.90;3.58;;;21.20;75.90;;;;;;5103211;28;20027;-67
2023/09/09 05:43:26;;;;;;;6.38;4.38;;;21.20;76.00;;;;;;5103522;28;20031;-67
2023/09/09 05:45:53;;;;;;;5.15;3.75;;;21.20;76.00;;;;;;5103863;28;20095;-69
2023/09/09 05:48:19;;;;;;;7.65;4.05;;;21.20;76.00;;;;;;5105178;28;20016;-69
2023/09/09 05:50:45;;;;;;;6.93;4.05;;;21.20;76.00;;;;;;5106580;28;20046;-71
2023/09/09 05:53:10;;;;;;;6.65;3.47;;;21.20;76.10;;;;;;5106884;28;20023;-68
2023/09/09 05:55:36;;;;;;;6.25;3.72;;;21.30;76.20;;;;;;5106062;28;20032;-67
2023/09/09 05:58:02;;;;;;;7.68;4.20;;;21.30;76.20;;;;;;5106559;28;20024;-67
2023/09/09 06:00:27;;;;;;;6.35;3.28;;;21.30;76.20;;;;;;5099033;28;20039;-66
2023/09/09 06:02:53;;;;;;;5.65;3.85;;;21.30;76.30;;;;;;5098799;28;20042;-66
2023/09/09 06:05:19;;;;;;;6.93;4.03;;;21.30;76.40;;;;;;5097245;28;20557;-66
2023/09/09 06:07:45;;;;;;;5.97;4.20;;;21.40;76.70;;;;;;5105096;28;20442;-67
2023/09/09 06:10:11;;;;;;;8.60;4.60;;;21.40;76.80;;;;;;5098508;28;20119;-67
2023/09/09 06:12:37;;;;;;;9.00;6.18;;;21.40;76.90;;;;;;5100737;27;20110;-67
2023/09/09 06:15:03;;;;;;;8.43;5.28;;;21.50;77.00;;;;;;5102954;28;20036;-67
2023/09/09 06:17:29;;;;;;;9.65;6.45;;;21.50;77.00;;;;;;5094939;28;20031;-66
2023/09/09 06:19:54;;;;;;;10.57;6.50;;;21.60;77.10;;;;;;5110480;27;20122;-67
2023/09/09 06:22:20;;;;;;;11.63;7.10;;;21.60;77.10;;;;;;5088890;28;20047;-67
2023/09/09 06:24:46;;;;;;;10.75;7.80;;;21.70;77.20;;;;;;5107103;28;20431;-66
2023/09/09 06:27:12;;;;;;;15.70;9.13;;;21.80;77.20;;;;;;5108154;28;20100;-67
2023/09/09 06:29:37;;;;;;;14.73;8.80;;;21.90;77.20;;;;;;5109440;27;20122;-67
2023/09/09 06:32:06;;;;;;;22.63;10.52;;;22.00;77.30;;;;;;5107700;28;20376;-66
2023/09/09 06:34:32;;;;;;;24.88;13.00;;;22.00;77.20;;;;;;5108411;27;20114;-66
2023/09/09 06:36:57;;;;;;;17.23;10.00;;;22.10;77.30;;;;;;5109945;27;20131;-67
2023/09/09 06:39:23;;;;;;;21.65;12.68;;;22.20;78.00;;;;;;5114503;27;20423;-67
2023/09/09 06:41:50;;;;;;;21.58;11.23;;;22.20;77.50;;;;;;5107893;27;20146;-65
2023/09/09 06:44:15;;;;;;;21.42;12.75;;;22.30;77.70;;;;;;5107261;27;20086;-64
2023/09/09 06:46:41;;;;;;;19.75;11.38;;;22.30;78.10;;;;;;5105904;28;20429;-65
2023/09/09 06:49:07;;;;;;;20.98;9.65;;;22.30;78.20;;;;;;5112443;27;20019;-65
2023/09/09 06:51:32;;;;;;;18.75;10.60;;;22.30;78.20;;;;;;5109260;28;20050;-65
2023/09/09 06:53:58;;;;;;;14.30;8.55;;;22.30;78.30;;;;;;5104445;27;20395;-66
2023/09/09 06:56:23;;;;;;;13.55;8.75;;;22.40;78.20;;;;;;5101758;28;20541;-66
2023/09/09 06:58:49;;;;;;;11.27;7.40;;;22.40;78.30;;;;;;5105600;28;20121;-65
2023/09/09 07:01:15;;;;;;;14.15;8.93;;;22.40;78.10;;;;;;5089502;28;20058;-66
2023/09/09 07:03:41;;;;;;;12.23;7.72;;;22.40;78.20;;;;;;5107930;27;20383;-67
2023/09/09 07:06:07;;;;;;;10.55;6.53;;;22.40;78.10;;;;;;5106913;27;20028;-66
2023/09/09 07:08:32;;;;;;;9.55;7.05;;;22.40;78.10;;;;;;5107759;28;20051;-67
2023/09/09 07:10:58;;;;;;;10.35;6.45;;;22.40;78.10;;;;;;5107245;28;20027;-67
2023/09/09 07:13:24;;;;;;;8.95;6.35;;;22.40;78.00;;;;;;5088098;28;20061;-66
2023/09/09 07:15:53;;;;;;;9.73;6.78;;;22.50;78.00;;;;;;5099798;28;20032;-67
2023/09/09 07:18:20;;;;;;;10.40;6.55;;;22.50;77.90;;;;;;5093463;28;20031;-66
2023/09/09 07:20:46;;;;;;;8.35;5.68;;;22.50;77.90;;;;;;5095979;27;20111;-67
2023/09/09 07:23:14;;;;;;;10.85;6.07;;;22.50;77.70;;;;;;5106024;28;20095;-66
2023/09/09 07:25:42;;;;;;;6.65;5.20;;;22.60;77.60;;;;;;5105949;28;20043;-68
2023/09/09 07:28:08;;;;;;;8.73;5.65;;;22.60;77.60;;;;;;5103112;27;20446;-67
2023/09/09 07:30:33;;;;;;;7.53;4.55;;;22.70;77.50;;;;;;5101191;28;20045;-67
2023/09/09 07:32:59;;;;;;;9.93;5.75;;;22.70;77.70;;;;;;5101802;28;20027;-67
2023/09/09 07:35:25;;;;;;;7.47;4.50;;;22.80;77.70;;;;;;5098249;28;20016;-67
2023/09/09 07:37:50;;;;;;;9.57;6.18;;;22.80;77.60;;;;;;5107388;27;20061;-67
2023/09/09 07:40:17;;;;;;;7.45;6.03;;;22.80;77.80;;;;;;5104062;28;20043;-67
2023/09/09 07:42:42;;;;;;;7.47;4.80;;;22.80;77.90;;;;;;5106903;28;20039;-67
2023/09/09 07:45:08;;;;;;;11.38;7.28;;;22.80;78.30;;;;;;5111648;28;20032;-67
2023/09/09 07:47:34;;;;;;;16.67;8.55;;;22.80;78.60;;;;;;5106808;28;20035;-67
2023/09/09 07:50:00;;;;;;;14.75;8.73;;;22.80;79.00;;;;;;5088156;28;20051;-67
2023/09/09 07:52:25;;;;;;;13.50;6.75;;;22.80;79.40;;;;;;5103582;28;20059;-67
2023/09/09 07:54:52;;;;;;;12.55;7.10;;;22.80;79.60;;;;;;5100740;27;20039;-67
2023/09/09 07:57:17;;;;;;;12.43;7.75;;;22.80;79.60;;;;;;5099314;28;20134;-67
2023/09/09 07:59:43;;;;;;;13.38;6.65;;;22.90;79.50;;;;;;5109831;27;20114;-66
2023/09/09 08:02:09;;;;;;;13.32;6.80;;;22.90;79.60;;;;;;5084186;28;20032;-67
2023/09/09 08:04:35;;;;;;;17.92;6.55;;;23.10;79.40;;;;;;5102727;27;20035;-67
2023/09/09 08:07:00;;;;;;;9.20;5.03;;;23.20;79.10;;;;;;5100950;28;20056;-67
2023/09/09 08:09:26;;;;;;;12.63;6.60;;;23.40;79.50;;;;;;5106990;28;20065;-67
2023/09/09 08:11:52;;;;;;;15.88;8.05;;;23.50;78.80;;;;;;5106793;28;20065;-66
2023/09/09 08:14:18;;;;;;;15.48;8.07;;;23.60;78.90;;;;;;5106642;28;20381;-66
2023/09/09 08:16:44;;;;;;;13.63;7.40;;;23.70;78.80;;;;;;5108816;28;20031;-67
2023/09/09 08:19:10;;;;;;;9.38;5.38;;;23.80;78.60;;;;;;5110116;28;20044;-66
2023/09/09 08:21:36;;;;;;;13.75;8.40;;;23.90;78.50;;;;;;5100940;27;20093;-67
2023/09/09 08:24:01;;;;;;;12.13;6.60;;;24.00;78.20;;;;;;5101356;27;20474;-66
2023/09/09 08:26:31;;;;;;;13.18;7.03;;;24.20;78.10;;;;;;5103046;28;20304;-67
2023/09/09 08:28:56;;;;;;;11.10;7.25;;;24.40;77.80;;;;;;5103530;27;20020;-67
2023/09/09 08:31:22;;;;;;;9.70;6.30;;;24.50;77.50;;;;;;5105102;28;20077;-66
2023/09/09 08:33:48;;;;;;;7.05;4.68;;;24.60;77.20;;;;;;5098591;28;20040;-67
2023/09/09 08:36:15;;;;;;;14.73;7.18;;;24.70;77.00;;;;;;5099810;27;20086;-66
2023/09/09 08:38:41;;;;;;;12.32;6.70;;;24.80;76.80;;;;;;5097089;27;20077;-67
2023/09/09 08:41:22;;;;;;;10.63;6.38;;;24.90;76.80;;;;;;5105020;28;20059;-67
2023/09/09 08:43:56;;;;;;;16.73;8.30;;;25.00;76.50;;;;;;5106655;28;20478;-66
2023/09/09 08:46:22;;;;;;;12.38;6.47;;;25.10;76.40;;;;;;5101343;28;20636;-67
2023/09/09 08:48:50;;;;;;;12.25;6.78;;;25.10;76.40;;;;;;5102936;27;20035;-67
2023/09/09 08:51:29;;;;;;;10.57;7.03;;;25.20;76.30;;;;;;5103538;28;20020;-67
2023/09/09 08:53:56;;;;;;;9.95;5.55;;;25.30;76.00;;;;;;5104397;27;20015;-67
2023/09/09 08:56:23;;;;;;;9.07;5.50;;;25.40;75.80;;;;;;5107296;27;20110;-67
2023/09/09 08:58:49;;;;;;;13.95;9.63;;;25.50;75.70;;;;;;5103008;28;20114;-67
2023/09/09 09:01:16;;;;;;;13.23;6.35;;;25.60;75.50;;;;;;5105971;28;20483;-66
2023/09/09 09:03:44;;;;;;;13.32;7.18;;;25.70;75.40;;;;;;5106344;28;20023;-67
2023/09/09 09:06:10;;;;;;;11.57;7.18;;;25.80;75.30;;;;;;5102642;28;20020;-67
2023/09/09 09:08:36;;;;;;;9.52;6.82;;;25.80;75.10;;;;;;5106788;28;20039;-67
2023/09/09 09:11:03;;;;;;;11.55;7.28;;;25.90;74.90;;;;;;5109018;28;20032;-67
2023/09/09 09:13:33;;;;;;;8.85;6.13;;;26.00;74.70;;;;;;5103425;28;20034;-67
2023/09/09 09:16:00;;;;;;;7.53;4.30;;;26.10;74.70;;;;;;5102675;28;20019;-67
2023/09/09 09:18:26;;;;;;;8.55;4.28;;;26.20;74.90;;;;;;5099523;28;20058;-67
2023/09/09 09:20:53;;;;;;;7.65;4.60;;;26.30;74.30;;;;;;5097736;27;20502;-67
2023/09/09 09:23:19;;;;;;;9.18;5.57;;;26.50;74.10;;;;;;5100546;28;20027;-67
2023/09/09 09:25:47;;;;;;;11.95;5.93;;;26.50;73.60;;;;;;5106352;28;20030;-67
2023/09/09 09:28:14;;;;;;;9.48;6.18;;;26.60;73.30;;;;;;5100798;28;20067;-67
2023/09/09 09:30:40;;;;;;;6.72;4.53;;;26.70;73.10;;;;;;5101413;28;20031;-67
2023/09/09 09:33:06;;;;;;;8.10;4.80;;;26.80;73.00;;;;;;5096453;28;20032;-67
2023/09/09 09:35:33;;;;;;;10.30;5.13;;;26.90;72.50;;;;;;5100976;28;20036;-67
2023/09/09 09:38:06;;;;;;;13.02;6.88;;;27.00;72.00;;;;;;5104177;28;20106;-67
2023/09/09 09:40:32;;;;;;;7.82;5.65;;;27.10;71.10;;;;;;5101147;28;20035;-66
2023/09/09 09:42:58;;;;;;;6.13;3.58;;;27.20;71.30;;;;;;5095158;28;20030;-67
2023/09/09 09:45:25;;;;;;;8.50;4.93;;;27.30;71.10;;;;;;5102681;28;20402;-67
2023/09/09 09:47:52;;;;;;;7.45;4.32;;;27.40;70.50;;;;;;5105272;28;20123;-67
2023/09/09 09:50:23;;;;;;;11.18;5.30;;;27.60;69.80;;;;;;5100637;28;20132;-67
2023/09/09 09:52:59;;;;;;;10.30;6.00;;;27.60;69.00;;;;;;5103083;28;20023;-67
2023/09/09 09:55:25;;;;;;;5.60;3.70;;;27.70;69.00;;;;;;5109001;28;20053;-68
2023/09/09 09:57:56;;;;;;;6.68;3.17;;;27.90;68.90;;;;;;5105151;28;20039;-67
2023/09/09 10:00:25;;;;;;;4.57;3.83;;;28.00;68.50;;;;;;5108871;28;20034;-67
2023/09/09 10:02:53;;;;;;;6.30;3.80;;;28.20;68.20;;;;;;5107604;28;20467;-67
2023/09/09 10:05:25;;;;;;;6.97;3.20;;;28.40;67.70;;;;;;5103969;27;20386;-67
2023/09/09 10:08:10;;;;;;;7.00;3.90;;;28.50;67.70;;;;;;5106034;27;20111;-67
2023/09/09 10:10:38;;;;;;;6.18;3.90;;;28.70;67.20;;;;;;5109058;28;20020;-68
2023/09/09 10:13:25;;;;;;;5.45;3.47;;;28.80;66.40;;;;;;5108226;28;20019;-67
2023/09/09 10:15:53;;;;;;;7.00;4.32;;;29.00;66.30;;;;;;5107006;28;20053;-68
2023/09/09 10:18:20;;;;;;;5.25;3.85;;;29.10;65.20;;;;;;5110117;28;20519;-67
2023/09/09 10:20:46;;;;;;;5.72;4.07;;;29.10;65.20;;;;;;5109938;27;20070;-67
2023/09/09 10:23:13;;;;;;;5.90;3.63;;;29.30;65.20;;;;;;5109442;28;20032;-67
2023/09/09 10:25:42;;;;;;;4.63;3.78;;;29.50;64.60;;;;;;5104537;28;20028;-67
2023/09/09 10:28:10;;;;;;;5.25;3.63;;;29.50;64.00;;;;;;5107418;27;20043;-67
2023/09/09 10:30:36;;;;;;;3.85;2.83;;;29.60;64.20;;;;;;5105674;27;20024;-67
2023/09/09 10:33:06;;;;;;;4.43;3.30;;;29.70;64.10;;;;;;5107028;27;20039;-67
2023/09/09 10:35:33;;;;;;;4.55;2.75;;;29.80;63.90;;;;;;5107290;27;20020;-67
2023/09/09 10:38:02;;;;;;;4.60;3.75;;;30.00;63.20;;;;;;5107086;28;20028;-67
2023/09/09 10:40:29;;;;;;;3.85;2.88;;;30.10;62.10;;;;;;5105964;27;20035;-67
2023/09/09 10:42:55;;;;;;;4.93;3.10;;;30.10;62.30;;;;;;5106604;27;20028;-67
2023/09/09 10:45:28;;;;;;;3.35;2.63;;;30.30;62.10;;;;;;5105253;27;20039;-67
2023/09/09 10:48:05;;;;;;;4.75;3.72;;;30.40;61.90;;;;;;5102834;28;20036;-67
2023/09/09 10:50:52;;;;;;;4.40;3.08;;;30.50;60.50;;;;;;5100984;28;20039;-67
2023/09/09 10:53:27;;;;;;;4.07;2.60;;;30.60;60.40;;;;;;5103931;27;20039;-68
2023/09/09 10:56:12;;;;;;;2.88;2.40;;;30.70;60.30;;;;;;5104402;28;20429;-68
2023/09/09 10:58:39;;;;;;;4.35;3.55;;;30.90;60.40;;;;;;5087434;27;20048;-67
2023/09/09 11:01:09;;;;;;;3.80;3.17;;;31.10;59.60;;;;;;5103786;27;20374;-67
2023/09/09 11:03:46;;;;;;;3.63;2.20;;;31.20;58.80;;;;;;5102068;27;20028;-68
2023/09/09 11:06:27;;;;;;;3.35;2.17;;;31.30;58.90;;;;;;5104246;27;20024;-67
2023/09/09 11:08:54;;;;;;;;;;;31.60;58.90;;;;;;5102783;27;20532;-67
2023/09/09 11:11:31;;;;;;;4.18;2.78;;;31.60;57.00;;;;;;5105649;27;20328;-67
2023/09/09 11:14:07;;;;;;;3.35;2.90;;;31.60;56.40;;;;;;5104041;27;20051;-67
2023/09/09 11:16:37;;;;;;;4.38;2.80;;;31.60;56.70;;;;;;5101552;27;20036;-67
2023/09/09 11:19:12;;;;;;;2.85;2.58;;;31.60;55.90;;;;;;5097850;27;20075;-67
2023/09/09 11:21:40;;;;;;;2.88;2.38;;;31.70;56.10;;;;;;5099513;28;20533;-67
2023/09/09 11:24:07;;;;;;;3.17;2.38;;;31.80;55.70;;;;;;5100557;28;20016;-67
2023/09/09 11:26:40;;;;;;;2.92;2.25;;;31.90;56.00;;;;;;5106204;28;20120;-68
2023/09/09 11:29:06;;;;;;;3.30;2.10;;;32.10;55.00;;;;;;5104621;28;20129;-67
2023/09/09 11:31:32;;;;;;;2.25;2.00;;;32.30;54.70;;;;;;5109504;28;20053;-67
2023/09/09 11:33:59;;;;;;;2.88;1.80;;;32.40;54.90;;;;;;5112366;27;20032;-67
2023/09/09 11:36:25;;;;;;;2.00;1.77;;;32.50;54.10;;;;;;5109433;27;20032;-67
2023/09/09 11:38:53;;;;;;;2.83;2.13;;;32.60;53.80;;;;;;5102168;27;20043;-67
2023/09/09 11:41:20;;;;;;;1.98;1.80;;;32.70;53.00;;;;;;5105470;27;20035;-68
2023/09/09 11:43:59;;;;;;;2.40;2.00;;;32.70;52.60;;;;;;5105545;27;20034;-67
2023/09/09 11:46:26;;;;;;;1.92;1.70;;;32.80;52.80;;;;;;5105466;27;20068;-67
2023/09/09 11:48:52;;;;;;;2.55;2.35;;;32.80;51.70;;;;;;5101780;28;20047;-67
2023/09/09 11:51:19;;;;;;;2.00;1.80;;;32.90;52.40;;;;;;5109601;27;20024;-67
2023/09/09 11:53:46;;;;;;;1.98;1.65;;;33.10;51.90;;;;;;5104959;27;20435;-66
2023/09/09 11:56:15;;;;;;;2.47;2.17;;;33.10;52.00;;;;;;5105620;28;20032;-67
2023/09/09 11:58:44;;;;;;;1.83;1.73;;;33.30;51.40;;;;;;5100945;27;20451;-67
2023/09/09 12:01:10;;;;;;;2.15;1.83;;;33.40;51.80;;;;;;5107158;28;20023;-67
2023/09/09 12:03:36;;;;;;;2.55;1.83;;;33.50;50.40;;;;;;5108768;28;20020;-67
2023/09/09 12:06:05;;;;;;;1.75;1.65;;;33.50;50.40;;;;;;5105057;28;20065;-67
2023/09/09 12:08:31;;;;;;;1.50;1.40;;;33.50;49.90;;;;;;5102471;27;20466;-66
2023/09/09 12:10:58;;;;;;;2.05;1.90;;;33.60;50.20;;;;;;5106068;28;20140;-66
2023/09/09 12:13:24;;;;;;;1.88;1.58;;;33.70;48.70;;;;;;5103354;28;20028;-67
2023/09/09 12:15:51;;;;;;;1.48;1.35;;;33.60;48.60;;;;;;5100394;28;20322;-67
2023/09/09 12:18:17;;;;;;;2.35;1.83;;;33.70;48.70;;;;;;5104643;27;20027;-67
2023/09/09 12:21:11;;;;;;;1.88;1.60;;;33.80;47.10;;;;;;5108166;27;20051;-67
2023/09/09 12:23:40;;;;;;;2.30;1.77;;;33.80;46.80;;;;;;5098522;28;20107;-67
2023/09/09 12:26:13;;;;;;;1.70;1.50;;;33.80;46.10;;;;;;5104643;27;20355;-67
2023/09/09 12:29:03;;;;;;;1.20;1.10;;;33.90;45.60;;;;;;5098850;28;20133;-67
2023/09/09 12:31:29;;;;;;;1.45;1.33;;;34.00;45.70;;;;;;5101609;28;20439;-67
2023/09/09 12:33:55;;;;;;;1.92;1.70;;;34.10;44.60;;;;;;5100291;28;20421;-67
2023/09/09 12:36:21;;;;;;;1.52;1.38;;;34.10;43.80;;;;;;5099105;28;20031;-67
2023/09/09 12:38:50;;;;;;;2.53;2.08;;;34.00;43.20;;;;;;5105500;28;20123;-67
2023/09/09 12:41:21;;;;;;;1.75;1.58;;;34.00;43.30;;;;;;5102395;28;20318;-68
2023/09/09 12:43:55;;;;;;;2.27;2.07;;;34.00;43.50;;;;;;5095821;27;20039;-67
2023/09/09 12:46:27;;;;;;;1.60;1.50;;;34.20;44.20;;;;;;5101990;27;20023;-67